Airfield :
LOGIN :

Register | Disclaimer

   EN    FR    IT 

 










Legend :    VFR   Marginal VFR   IFR   Intensive IFR   Very Intensive IFR
Visi :
Ceiling :
>= 8 km
>= 3000ft
5 to 8 km
1000 to 3000 ft
1500m to 5 km
500 to 1000 ft
800 to 1500m
200 to 500 ft
< 800m
< 200 ft
Symbols :   Thunderstorms  Fog  Heavy snow  Heavy precipitations  Wind > 20 kt
SIGMETs :     Misc.  Thunderstorms  Icing  Turbulence  Mountain Waves  Volcanic Ashes






- Airport Elevation : 665 ft
- IATA code : NOC


EIKN - Connaught / Knock- Ireland West

CURRENT METAR :
  • 090930Z 28012KT 9999 SCT024 05/03 Q1017 NOSIG

EXPIRED METARs :
  • 090900Z 29012KT 9999 FEW023 05/03 Q1017 NOSIG
  • 090830Z 29011KT 9999 FEW024 05/03 Q1016 NOSIG
  • 090800Z 29009KT 9999 FEW018CB SCT026 05/04 Q1016 NOSIG
  • 090730Z 31010KT 9999 FEW018CB SCT031 BKN048 05/04 Q1015 NOSIG
  • 090700Z 29011KT 9999 FEW018CB SCT034 05/03 Q1014 NOSIG

TAF TAF EIKN
Valid from the 09 at 06:00 until the 10 at 06:00 UTC


090500Z 0906/1006 32015G25KT 9999 FEW018 SCT030
BECMG 0906/0908 31010KT
BECMG 0909/0911 28007KT
BECMG 0914/0916 18010KT
BECMG 0920/0922 18018G32KT
BECMG 1000/1002 4000 -RA BKN009
TEMPO 1003/1006 2000 RA BKN003



MET'MAP, your aeronautical weather chart ! - Copyright ORBIFLY December 2007 - Disclaimer

ORBIFLY MET'MAP TEAM :

Programming & Development : Alexandra Zaïnal
Concept & original design : Baudouin d'Aumeries
Assistance for programming : Marc-Olivier Méhu
Technical & hardware support : Manuel Goepfert

Contact : metmap@orbifly.com




SOURCES & CREDITS :

   NOAA